Time;durP1;ratioP1;P1;durP2;ratioP2;P2;SDS_P1;SDS_P2;PMS_P1;PMS_P2;Temp;Humidity;BMP_temperature;BMP_pressure;BME280_temperature;BME280_humidity;BME280_pressure;Samples;Min_cycle;Max_cycle;Signal;HPM_P1;HPM_P2
2022/08/11 00:01:09;;;;;;;3.87;3.57;;;25.90;49.10;;;;;;5053917;28;20479;-61
2022/08/11 00:03:41;;;;;;;3.17;2.97;;;25.90;49.20;;;;;;5054287;28;20946;-61
2022/08/11 00:06:09;;;;;;;3.40;3.03;;;25.80;49.20;;;;;;5054169;28;20531;-63
2022/08/11 00:08:37;;;;;;;3.00;2.80;;;25.90;49.30;;;;;;5054087;28;20504;-63
2022/08/11 00:11:07;;;;;;;3.67;3.37;;;25.80;49.30;;;;;;5053528;28;20519;-63
2022/08/11 00:13:35;;;;;;;2.93;2.73;;;25.80;49.40;;;;;;5054348;28;20432;-62
2022/08/11 00:16:04;;;;;;;3.13;2.90;;;25.80;49.50;;;;;;5053860;28;20448;-62
2022/08/11 00:18:40;;;;;;;3.03;2.80;;;25.70;49.50;;;;;;5054063;28;20551;-59
2022/08/11 00:21:08;;;;;;;3.50;3.20;;;25.70;49.50;;;;;;5054022;28;20841;-60
2022/08/11 00:23:41;;;;;;;3.50;3.30;;;25.70;49.70;;;;;;5052508;28;20531;-59
2022/08/11 00:26:08;;;;;;;3.40;3.20;;;25.60;49.80;;;;;;5053094;28;20528;-60
2022/08/11 00:28:36;;;;;;;4.40;3.20;;;25.60;49.90;;;;;;5053797;28;21034;-62
2022/08/11 00:31:05;;;;;;;3.67;3.47;;;25.60;49.90;;;;;;5053751;28;20949;-61
2022/08/11 00:33:38;;;;;;;4.23;3.70;;;25.60;50.00;;;;;;5053469;28;20505;-61
2022/08/11 00:36:06;;;;;;;3.13;2.93;;;25.50;50.10;;;;;;5053657;28;20913;-63
2022/08/11 00:38:35;;;;;;;2.73;2.60;;;25.50;50.20;;;;;;5053409;28;21049;-62
2022/08/11 00:41:15;;;;;;;3.30;2.60;;;25.50;50.30;;;;;;5053446;28;20969;-60
2022/08/11 00:44:03;;;;;;;3.03;2.83;;;25.50;50.40;;;;;;5053516;28;20867;-61
2022/08/11 00:46:42;;;;;;;3.20;2.90;;;25.40;50.40;;;;;;5053269;28;20547;-60
2022/08/11 00:49:24;;;;;;;4.50;2.53;;;25.40;50.50;;;;;;5053438;28;20549;-63
2022/08/11 00:52:08;;;;;;;3.20;3.00;;;25.50;50.50;;;;;;5053443;28;20440;-61
2022/08/11 00:55:07;;;;;;;2.67;2.57;;;25.40;50.40;;;;;;5053627;28;20444;-62
2022/08/11 00:58:02;;;;;;;3.60;3.03;;;25.40;50.50;;;;;;5052774;28;20460;-61
2022/08/11 01:00:40;;;;;;;4.03;3.17;;;25.30;50.60;;;;;;5053267;28;20455;-61
2022/08/11 01:03:32;;;;;;;4.07;3.67;;;25.30;50.70;;;;;;5053059;28;20519;-62
2022/08/11 01:06:38;;;;;;;3.40;3.10;;;25.30;50.80;;;;;;5052870;28;20483;-62
2022/08/11 01:09:48;;;;;;;3.30;3.07;;;25.20;50.80;;;;;;5052769;28;20464;-62
2022/08/11 01:12:28;;;;;;;2.60;2.50;;;25.20;50.90;;;;;;5037617;28;20452;-63
2022/08/11 01:15:35;;;;;;;3.10;2.90;;;25.20;51.10;;;;;;5052721;28;20440;-62
2022/08/11 01:18:44;;;;;;;3.93;3.63;;;25.20;51.10;;;;;;5052767;28;20464;-62
2022/08/11 01:21:54;;;;;;;3.20;3.00;;;25.20;51.10;;;;;;5052530;28;20532;-62
2022/08/11 01:24:51;;;;;;;4.90;2.70;;;25.10;51.20;;;;;;5052605;28;20545;-62
2022/08/11 01:27:54;;;;;;;6.40;3.37;;;25.10;51.20;;;;;;5052570;28;20475;-62
2022/08/11 01:30:54;;;;;;;2.80;2.60;;;25.00;51.20;;;;;;5050861;28;20451;-61
2022/08/11 01:33:55;;;;;;;3.40;3.10;;;25.00;51.30;;;;;;5052350;28;20441;-61
2022/08/11 01:36:50;;;;;;;3.20;3.00;;;25.10;51.30;;;;;;5027489;28;20528;-62
2022/08/11 01:40:07;;;;;;;3.30;3.00;;;25.00;51.30;;;;;;5052382;28;20551;-61
2022/08/11 01:45:59;;;;;;;3.50;3.13;;;25.10;51.40;;;;;;5051965;28;21014;-62
2022/08/11 01:48:39;;;;;;;3.30;2.80;;;25.00;51.90;;;;;;5052244;28;20492;-62
2022/08/11 01:51:23;;;;;;;4.00;3.70;;;24.90;51.60;;;;;;5051080;28;20448;-63
2022/08/11 01:54:02;;;;;;;4.07;2.73;;;24.90;51.70;;;;;;5052093;28;20448;-61
2022/08/11 01:56:54;;;;;;;3.60;3.30;;;24.90;51.80;;;;;;5052223;28;20491;-62
2022/08/11 01:59:26;;;;;;;2.97;2.77;;;24.80;51.70;;;;;;5051889;28;20817;-62
2022/08/11 02:02:17;;;;;;;2.93;2.73;;;24.80;51.90;;;;;;5052057;28;20583;-63
2022/08/11 02:04:56;;;;;;;3.40;3.20;;;24.80;52.10;;;;;;5051955;28;20535;-63
2022/08/11 02:07:31;;;;;;;3.40;3.10;;;24.80;52.20;;;;;;5051761;28;20941;-62
2022/08/11 02:12:59;;;;;;;3.00;2.80;;;24.70;52.30;;;;;;5051666;28;20436;-63
2022/08/11 02:15:33;;;;;;;3.23;3.03;;;24.60;52.30;;;;;;5051573;28;20440;-63
2022/08/11 02:18:08;;;;;;;3.33;3.03;;;24.70;52.50;;;;;;5032041;28;20515;-63
2022/08/11 02:23:40;;;;;;;3.40;3.10;;;24.60;52.70;;;;;;5031882;28;20551;-63
2022/08/11 02:26:20;;;;;;;3.40;3.10;;;24.60;53.20;;;;;;5031818;28;20449;-63
2022/08/11 02:29:03;;;;;;;3.30;3.10;;;24.60;52.70;;;;;;5043104;28;20539;-63
2022/08/11 02:34:40;;;;;;;5.40;3.20;;;24.50;52.50;;;;;;5051575;28;20539;-63
2022/08/11 02:37:18;;;;;;;3.50;3.20;;;24.50;52.60;;;;;;5051547;28;20518;-63
2022/08/11 02:39:55;;;;;;;3.10;2.80;;;24.50;52.80;;;;;;5051278;28;20931;-63
2022/08/11 02:42:30;;;;;;;3.07;2.87;;;24.50;53.20;;;;;;5051516;28;20574;-63
2022/08/11 02:45:16;;;;;;;3.23;2.93;;;24.50;53.10;;;;;;5051334;28;20530;-63
2022/08/11 02:50:41;;;;;;;3.10;2.90;;;24.30;53.20;;;;;;5051205;28;20434;-63
2022/08/11 02:53:16;;;;;;;2.93;2.77;;;24.40;53.60;;;;;;5051278;28;20527;-63
2022/08/11 02:55:56;;;;;;;3.37;3.00;;;24.30;53.60;;;;;;5051320;28;20464;-63
2022/08/11 02:58:36;;;;;;;4.80;3.70;;;24.30;53.80;;;;;;5051376;28;20500;-63
2022/08/11 03:01:12;;;;;;;3.20;3.00;;;24.20;54.10;;;;;;5051596;28;20468;-63
2022/08/11 03:03:50;;;;;;;5.07;3.73;;;24.20;54.40;;;;;;5054927;28;20507;-63
2022/08/11 03:06:29;;;;;;;5.03;3.47;;;24.10;54.80;;;;;;5055233;28;20448;-63
2022/08/11 03:09:04;;;;;;;3.63;3.43;;;24.10;55.10;;;;;;5055298;28;20468;-63
2022/08/11 03:17:40;;;;;;;3.40;3.10;;;24.20;55.80;;;;;;5035256;28;20502;-63
2022/08/11 03:20:20;;;;;;;3.90;3.30;;;24.20;56.10;;;;;;5035158;28;20986;-63
2022/08/11 03:22:54;;;;;;;4.43;3.70;;;24.10;56.40;;;;;;5044256;28;20472;-63
2022/08/11 03:25:30;;;;;;;2.93;2.77;;;24.10;56.60;;;;;;5054814;28;20536;-63
2022/08/11 03:28:08;;;;;;;3.50;3.20;;;24.10;56.70;;;;;;5054921;28;20469;-63
2022/08/11 03:30:50;;;;;;;3.00;2.80;;;24.10;56.60;;;;;;5055188;28;20482;-63
2022/08/11 03:36:28;;;;;;;3.40;3.20;;;24.10;56.70;;;;;;5034902;28;20419;-64
2022/08/11 03:39:06;;;;;;;3.67;3.43;;;24.10;56.80;;;;;;5034876;28;20461;-63
2022/08/11 03:41:43;;;;;;;3.70;3.50;;;24.10;56.80;;;;;;5034787;28;20533;-63
2022/08/11 03:44:29;;;;;;;4.27;3.97;;;24.10;56.80;;;;;;5034779;28;20523;-63
2022/08/11 03:47:28;;;;;;;4.60;4.20;;;24.10;57.00;;;;;;5045785;28;20538;-63
2022/08/11 03:50:07;;;;;;;3.90;3.60;;;24.10;57.10;;;;;;5054663;28;20539;-62
2022/08/11 03:52:49;;;;;;;3.93;3.43;;;24.10;57.00;;;;;;5054425;28;20474;-63
2022/08/11 03:55:31;;;;;;;3.30;3.10;;;24.00;57.10;;;;;;5054247;28;20941;-63
2022/08/11 03:58:36;;;;;;;4.60;3.80;;;24.00;57.20;;;;;;5054217;28;20474;-62
2022/08/11 04:01:38;;;;;;;3.27;2.97;;;24.00;57.40;;;;;;5054472;28;20482;-63
2022/08/11 04:04:40;;;;;;;3.97;3.57;;;24.00;57.40;;;;;;5054251;28;20663;-63
2022/08/11 04:07:37;;;;;;;3.50;3.20;;;23.90;57.40;;;;;;5036650;28;20444;-62
2022/08/11 04:10:42;;;;;;;3.80;3.27;;;23.90;57.50;;;;;;5049767;28;20448;-63
2022/08/11 04:13:40;;;;;;;3.40;3.10;;;23.90;57.70;;;;;;5053603;28;20531;-64
2022/08/11 04:16:23;;;;;;;4.00;3.60;;;24.10;57.80;;;;;;5054095;28;20460;-61
2022/08/11 04:19:28;;;;;;;3.50;3.00;;;24.30;57.50;;;;;;5054054;28;20815;-60
2022/08/11 04:22:27;;;;;;;3.40;3.20;;;24.50;57.50;;;;;;5053728;28;20529;-58
2022/08/11 04:25:26;;;;;;;3.10;2.90;;;24.60;57.50;;;;;;5053721;28;20441;-65
2022/08/11 04:40:31;;;;;;;3.50;3.20;;;24.70;56.90;;;;;;5149615;27;20356;-60
2022/08/11 04:43:40;;;;;;;3.40;3.03;;;25.30;55.70;;;;;;5091534;22;20474;-50
2022/08/11 04:46:37;;;;;;;2.70;2.50;;;25.30;55.50;;;;;;5085876;28;20442;-49
2022/08/11 05:01:40;;;;;;;2.70;2.60;;;25.20;55.90;;;;;;5076617;28;20910;-51
2022/08/11 05:07:59;;;;;;;3.20;3.00;;;25.20;56.00;;;;;;5068247;28;20925;-55
2022/08/11 05:10:43;;;;;;;5.67;2.83;;;25.20;56.10;;;;;;5062235;28;20474;-52
2022/08/11 05:35:44;;;;;;;3.13;2.93;;;25.40;56.60;;;;;;5087904;28;20414;-47
2022/08/11 05:57:48;;;;;;;4.30;2.93;;;25.50;56.10;;;;;;5074009;28;20465;-55
2022/08/11 06:00:15;;;;;;;4.33;3.27;;;25.60;56.10;;;;;;5057405;28;20821;-50
2022/08/11 06:02:43;;;;;;;2.70;2.50;;;25.60;56.20;;;;;;5053816;28;20892;-50
2022/08/11 06:05:11;;;;;;;3.07;2.87;;;25.60;56.30;;;;;;5053901;28;20486;-46
2022/08/11 06:07:40;;;;;;;2.83;2.67;;;25.60;56.40;;;;;;5053811;28;20920;-50
2022/08/11 06:10:08;;;;;;;2.70;2.60;;;25.60;56.50;;;;;;5054788;28;20523;-48
2022/08/11 06:12:39;;;;;;;6.83;2.97;;;25.70;56.50;;;;;;5053604;28;20472;-50
2022/08/11 06:15:08;;;;;;;2.93;2.63;;;25.70;56.60;;;;;;5053711;28;20448;-51
2022/08/11 06:17:44;;;;;;;2.53;2.37;;;25.70;56.60;;;;;;5053305;28;20489;-49
2022/08/11 06:20:12;;;;;;;2.90;2.70;;;25.70;56.50;;;;;;5068709;28;20830;-52
2022/08/11 06:22:43;;;;;;;2.53;2.33;;;25.80;56.50;;;;;;5073514;28;20463;-52
2022/08/11 06:25:11;;;;;;;2.40;2.30;;;25.80;56.50;;;;;;5073471;28;20478;-47
2022/08/11 06:27:40;;;;;;;3.47;2.30;;;25.80;56.50;;;;;;5073338;28;20449;-50
2022/08/11 06:30:13;;;;;;;3.37;3.10;;;25.80;56.50;;;;;;5058124;28;20526;-48
2022/08/11 06:32:43;;;;;;;3.00;2.80;;;25.80;56.60;;;;;;5053395;28;20827;-49
2022/08/11 06:35:19;;;;;;;2.90;2.70;;;25.80;56.00;;;;;;5053363;28;20547;-48
2022/08/11 06:38:01;;;;;;;4.87;3.50;;;25.90;55.70;;;;;;5053400;28;20440;-48
2022/08/11 06:40:37;;;;;;;2.90;2.77;;;25.90;55.10;;;;;;5070282;28;20452;-47
2022/08/11 06:43:15;;;;;;;3.50;2.80;;;25.90;54.70;;;;;;5072879;28;20985;-50
2022/08/11 06:45:51;;;;;;;3.90;3.70;;;25.90;54.60;;;;;;5073126;28;20443;-47
2022/08/11 06:48:21;;;;;;;3.23;3.10;;;25.90;54.00;;;;;;5073065;28;20583;-48
2022/08/11 06:53:42;;;;;;;2.90;2.70;;;25.90;53.00;;;;;;5052983;28;20496;-47
2022/08/11 07:01:47;;;;;;;3.50;3.30;;;25.90;52.80;;;;;;5072804;28;20415;-53
2022/08/11 07:04:21;;;;;;;3.60;3.40;;;26.00;51.90;;;;;;5072627;28;20491;-49
2022/08/11 07:15:46;;;;;;;3.23;3.03;;;26.00;52.00;;;;;;5052532;28;20918;-53
2022/08/11 07:29:40;;;;;;;4.37;3.00;;;26.00;52.30;;;;;;5071913;28;20478;-48
2022/08/11 07:32:15;;;;;;;5.10;3.60;;;26.10;52.50;;;;;;5072127;28;20451;-54
2022/08/11 07:34:48;;;;;;;3.37;3.17;;;26.10;52.70;;;;;;5072149;28;20445;-51
2022/08/11 07:37:19;;;;;;;3.23;3.03;;;26.10;53.00;;;;;;5068752;28;20440;-50
2022/08/11 07:39:47;;;;;;;3.13;2.93;;;26.10;52.50;;;;;;5051877;28;20452;-47
2022/08/11 07:42:20;;;;;;;3.50;3.30;;;26.10;52.00;;;;;;5051891;28;20573;-50
2022/08/11 07:53:12;;;;;;;3.10;3.00;;;26.20;54.30;;;;;;5049731;28;20444;-52
2022/08/11 07:55:41;;;;;;;3.60;3.30;;;26.20;55.90;;;;;;5069702;28;20541;-52
2022/08/11 08:20:19;;;;;;;5.13;4.80;;;26.30;53.10;;;;;;5051386;28;20778;-49
2022/08/11 08:22:48;;;;;;;3.07;2.97;;;26.30;53.70;;;;;;5051502;28;20468;-52
2022/08/11 08:25:16;;;;;;;2.97;2.80;;;26.30;53.40;;;;;;5051581;28;20527;-49
2022/08/11 08:27:44;;;;;;;3.63;3.40;;;26.30;52.30;;;;;;5057270;28;20454;-54
2022/08/11 08:32:59;;;;;;;3.13;2.83;;;26.30;52.50;;;;;;5071260;28;21010;-48
2022/08/11 08:35:29;;;;;;;3.40;3.20;;;26.30;53.00;;;;;;5071408;28;20443;-48
2022/08/11 08:37:56;;;;;;;3.20;3.00;;;26.30;53.10;;;;;;5063498;28;20540;-49
2022/08/11 08:40:23;;;;;;;3.17;3.07;;;26.30;53.30;;;;;;5051272;28;20519;-50
2022/08/11 08:42:59;;;;;;;3.83;3.53;;;26.30;53.70;;;;;;5051131;28;20554;-48
2022/08/11 08:45:28;;;;;;;4.07;3.17;;;26.40;53.70;;;;;;5051287;28;20926;-53
2022/08/11 08:47:59;;;;;;;2.93;2.80;;;26.40;53.60;;;;;;5058223;28;20523;-54
2022/08/11 08:51:33;;;;;;;2.80;2.60;;;26.40;53.80;;;;;;5071213;28;20443;-53
2022/08/11 08:53:20;;;;;;;2.97;2.77;;;26.40;53.80;;;;;;5071012;28;20455;-52
2022/08/11 08:55:49;;;;;;;3.40;3.23;;;26.40;53.90;;;;;;5071258;28;20478;-49
2022/08/11 08:58:19;;;;;;;3.53;3.20;;;26.40;52.90;;;;;;5060781;28;21209;-49
2022/08/11 09:00:51;;;;;;;3.13;2.93;;;26.40;53.10;;;;;;5050917;28;20535;-51
2022/08/11 09:03:19;;;;;;;3.40;3.20;;;26.50;53.30;;;;;;5051200;28;20468;-48
2022/08/11 09:05:47;;;;;;;3.00;2.90;;;26.50;53.50;;;;;;5051140;28;20459;-54
2022/08/11 09:08:17;;;;;;;3.50;3.30;;;26.50;53.50;;;;;;5060429;28;20479;-48
2022/08/11 09:10:46;;;;;;;3.47;3.27;;;26.50;53.10;;;;;;5070873;28;20542;-49
2022/08/11 09:13:15;;;;;;;4.87;3.07;;;26.50;53.30;;;;;;5071054;28;20964;-51
2022/08/11 09:15:42;;;;;;;7.37;3.40;;;26.50;53.40;;;;;;5073795;28;20471;-49
2022/08/11 09:18:12;;;;;;;3.47;3.20;;;26.50;53.30;;;;;;5065672;28;20805;-50
2022/08/11 09:20:39;;;;;;;3.33;3.13;;;26.50;53.50;;;;;;5054508;28;20483;-50
2022/08/11 09:28:42;;;;;;;3.30;3.00;;;26.60;55.20;;;;;;5067164;28;20981;-50
2022/08/11 09:31:11;;;;;;;6.23;4.07;;;26.60;56.10;;;;;;5074233;28;20819;-51
2022/08/11 09:33:41;;;;;;;4.87;4.47;;;26.60;56.80;;;;;;5074742;28;20990;-50
2022/08/11 09:41:52;;;;;;;4.70;3.57;;;26.70;57.70;;;;;;5012604;28;20483;-50
2022/08/11 09:47:14;;;;;;;3.50;3.20;;;26.70;57.00;;;;;;5054600;28;20435;-51
2022/08/11 09:49:44;;;;;;;4.17;3.87;;;26.70;57.10;;;;;;5054255;28;20484;-49
2022/08/11 09:52:12;;;;;;;4.03;3.47;;;26.70;57.10;;;;;;5054040;28;20460;-49
2022/08/11 09:54:40;;;;;;;4.33;3.77;;;26.70;57.10;;;;;;5053739;28;20452;-50
2022/08/11 10:00:00;;;;;;;5.07;3.97;;;26.70;57.10;;;;;;5041125;28;20425;-52
2022/08/11 10:02:30;;;;;;;4.33;3.93;;;26.80;56.90;;;;;;5054092;28;20552;-51
2022/08/11 10:07:00;;;;;;;3.87;3.50;;;26.80;57.00;;;;;;5054147;28;20440;-48
2022/08/11 10:07:51;;;;;;;5.10;3.77;;;26.80;56.60;;;;;;5058137;28;20442;-49
2022/08/11 10:10:21;;;;;;;3.90;3.60;;;26.80;57.00;;;;;;5073746;28;20483;-51
2022/08/11 10:12:51;;;;;;;4.00;3.70;;;26.80;57.00;;;;;;5074219;28;20463;-49
2022/08/11 10:15:33;;;;;;;3.97;3.00;;;26.80;56.90;;;;;;5073906;28;20814;-50
2022/08/11 10:20:55;;;;;;;3.47;3.17;;;26.80;57.00;;;;;;5053842;28;20416;-47
2022/08/11 10:28:54;;;;;;;4.13;3.90;;;26.90;56.70;;;;;;5066310;28;20997;-47
2022/08/11 10:34:08;;;;;;;4.63;3.80;;;26.90;56.70;;;;;;5053564;28;20439;-53
2022/08/11 10:36:43;;;;;;;3.13;2.93;;;26.90;56.70;;;;;;5053524;28;20547;-51
2022/08/11 10:39:14;;;;;;;3.50;3.30;;;27.00;56.70;;;;;;5068496;28;20497;-49
2022/08/11 10:44:27;;;;;;;3.80;3.50;;;27.00;56.70;;;;;;5073999;28;20979;-47
2022/08/11 10:49:39;;;;;;;4.17;3.80;;;27.00;56.40;;;;;;5053946;28;20989;-49
2022/08/11 11:00:23;;;;;;;3.20;3.00;;;27.00;56.90;;;;;;5073206;28;20450;-53
2022/08/11 11:02:51;;;;;;;3.40;3.20;;;27.10;57.30;;;;;;5073143;28;20467;-48
2022/08/11 11:05:24;;;;;;;3.77;3.47;;;27.10;56.60;;;;;;5073195;28;21013;-46
2022/08/11 11:08:02;;;;;;;4.13;3.43;;;27.10;56.60;;;;;;5069153;28;20451;-47
2022/08/11 11:10:30;;;;;;;3.20;3.10;;;27.10;56.80;;;;;;5052527;28;20483;-49
2022/08/11 11:18:34;;;;;;;3.60;3.30;;;27.20;56.20;;;;;;5060962;28;20690;-47
2022/08/11 11:21:05;;;;;;;3.00;2.90;;;27.20;56.10;;;;;;5072543;28;20444;-47
2022/08/11 11:23:40;;;;;;;3.33;3.20;;;27.20;55.90;;;;;;5072726;28;20994;-53
2022/08/11 11:26:38;;;;;;;3.13;2.93;;;27.20;55.90;;;;;;5069832;28;20440;-46
2022/08/11 11:29:31;;;;;;;3.43;2.93;;;27.20;55.90;;;;;;5052309;28;20989;-48
2022/08/11 11:32:17;;;;;;;3.60;3.30;;;27.20;55.60;;;;;;5052282;28;20476;-55
2022/08/11 11:35:10;;;;;;;2.70;2.60;;;27.20;55.90;;;;;;5052472;28;20456;-50
2022/08/11 11:37:39;;;;;;;3.20;3.00;;;27.20;55.70;;;;;;5066971;28;20447;-52
2022/08/11 11:40:12;;;;;;;2.60;2.40;;;27.20;55.70;;;;;;5072274;28;20928;-50
2022/08/11 11:42:41;;;;;;;3.97;3.60;;;27.20;55.50;;;;;;5071629;28;20565;-49
2022/08/11 11:45:10;;;;;;;3.00;2.90;;;27.30;55.60;;;;;;5072194;28;20478;-47
2022/08/11 11:47:38;;;;;;;3.60;3.40;;;27.30;55.60;;;;;;5056717;28;20449;-50
2022/08/11 11:50:08;;;;;;;3.13;3.03;;;27.30;55.60;;;;;;5051818;28;20488;-47
2022/08/11 11:52:36;;;;;;;2.80;2.70;;;27.30;55.50;;;;;;5052115;28;20825;-48
2022/08/11 11:55:03;;;;;;;2.40;2.30;;;27.30;55.40;;;;;;5052273;28;20444;-50
2022/08/11 12:03:07;;;;;;;2.97;2.83;;;27.30;55.30;;;;;;5072072;28;20466;-50
2022/08/11 12:05:36;;;;;;;2.87;2.70;;;27.30;55.20;;;;;;5072332;28;20479;-52
2022/08/11 12:08:14;;;;;;;3.27;3.07;;;27.30;55.10;;;;;;5053556;28;20448;-50
2022/08/11 12:10:46;;;;;;;3.33;3.13;;;27.40;55.20;;;;;;5051886;28;20484;-54
2022/08/11 12:16:02;;;;;;;3.80;3.60;;;27.40;54.80;;;;;;5052930;28;20787;-51
2022/08/11 12:18:32;;;;;;;2.90;2.80;;;27.40;54.80;;;;;;5071653;28;20524;-52
2022/08/11 12:21:00;;;;;;;2.93;2.80;;;27.40;54.80;;;;;;5071554;28;20471;-48
2022/08/11 12:29:18;;;;;;;3.30;3.00;;;27.50;54.40;;;;;;5009229;28;20473;-51
2022/08/11 12:31:46;;;;;;;2.63;2.53;;;27.40;54.30;;;;;;5009509;28;20829;-48
2022/08/11 12:34:15;;;;;;;2.90;2.80;;;27.50;54.40;;;;;;5028743;28;21044;-49
2022/08/11 12:36:46;;;;;;;2.50;2.40;;;27.50;54.40;;;;;;5057669;28;20459;-49
2022/08/11 12:39:17;;;;;;;3.10;2.90;;;27.50;54.40;;;;;;5071027;28;20448;-52
2022/08/11 12:47:17;;;;;;;3.77;3.47;;;27.60;54.30;;;;;;5048543;28;21032;-51
2022/08/11 12:52:37;;;;;;;2.70;2.60;;;27.60;54.30;;;;;;5055702;28;20946;-49
2022/08/11 12:55:11;;;;;;;3.00;2.90;;;27.60;54.10;;;;;;5055861;28;20450;-47
2022/08/11 13:06:04;;;;;;;2.77;2.67;;;27.70;53.90;;;;;;5074478;28;20557;-56
2022/08/11 13:08:34;;;;;;;2.60;2.50;;;27.70;54.00;;;;;;5055190;28;20952;-54
2022/08/11 13:13:51;;;;;;;2.97;2.87;;;27.70;53.80;;;;;;5055406;28;20977;-52
2022/08/11 13:16:21;;;;;;;2.80;2.70;;;27.70;53.60;;;;;;5056767;28;20817;-53
2022/08/11 13:18:49;;;;;;;3.03;2.93;;;27.70;53.70;;;;;;5075137;28;20518;-48
2022/08/11 13:21:17;;;;;;;3.00;2.80;;;27.70;53.80;;;;;;5074926;28;20807;-49
2022/08/11 13:23:45;;;;;;;2.87;2.77;;;27.70;53.70;;;;;;5074683;28;20470;-51
2022/08/11 13:26:13;;;;;;;2.30;2.20;;;27.70;53.60;;;;;;5073391;28;20478;-50
2022/08/11 13:28:40;;;;;;;3.03;2.93;;;27.70;53.60;;;;;;5054451;28;20444;-53
2022/08/11 13:31:14;;;;;;;2.90;2.80;;;27.70;53.50;;;;;;5054403;28;20480;-54
2022/08/11 13:33:48;;;;;;;2.80;2.60;;;27.80;53.60;;;;;;5054417;28;20468;-53
2022/08/11 13:36:19;;;;;;;3.00;2.80;;;27.80;53.30;;;;;;5069713;28;20454;-56
2022/08/11 13:38:47;;;;;;;3.23;3.03;;;27.80;53.30;;;;;;5074568;28;20870;-51
2022/08/11 13:44:01;;;;;;;2.80;2.70;;;27.80;53.20;;;;;;5074175;28;20830;-53
2022/08/11 13:46:29;;;;;;;3.07;2.97;;;27.80;53.30;;;;;;5057171;28;20810;-54
2022/08/11 13:48:58;;;;;;;2.50;2.40;;;27.80;53.50;;;;;;5054079;28;20440;-55
2022/08/11 13:51:33;;;;;;;3.30;3.10;;;27.80;53.50;;;;;;5054129;28;20476;-55
2022/08/11 13:54:01;;;;;;;2.47;2.43;;;27.80;53.50;;;;;;5053972;28;20491;-53
2022/08/11 13:56:29;;;;;;;4.07;3.87;;;27.90;53.50;;;;;;5054142;28;20452;-54
2022/08/11 13:58:57;;;;;;;2.73;2.63;;;27.90;53.50;;;;;;5053963;28;20488;-51
2022/08/11 14:01:29;;;;;;;3.20;3.00;;;27.90;53.50;;;;;;5053383;28;20798;-54
2022/08/11 14:04:02;;;;;;;2.60;2.50;;;27.90;53.40;;;;;;5062786;28;20541;-55
2022/08/11 14:06:30;;;;;;;2.73;2.30;;;28.00;53.20;;;;;;5073959;28;20478;-54
2022/08/11 14:08:58;;;;;;;2.90;2.77;;;27.90;53.70;;;;;;5073782;28;20965;-48
2022/08/11 14:14:19;;;;;;;2.73;2.60;;;28.00;53.20;;;;;;5062793;28;20467;-55
2022/08/11 14:16:48;;;;;;;2.77;2.57;;;28.00;53.10;;;;;;5053710;28;20443;-49
2022/08/11 14:19:18;;;;;;;2.80;2.70;;;28.00;53.10;;;;;;5053587;28;21204;-53
2022/08/11 14:24:32;;;;;;;2.43;2.33;;;28.00;53.10;;;;;;5054759;28;20439;-49
2022/08/11 14:27:00;;;;;;;3.27;3.13;;;28.00;52.80;;;;;;5053551;28;20451;-53
2022/08/11 14:29:28;;;;;;;2.57;2.47;;;28.10;53.00;;;;;;5053274;28;20499;-50
2022/08/11 14:32:02;;;;;;;2.50;2.40;;;28.10;52.90;;;;;;5053272;28;20448;-49
2022/08/11 14:34:33;;;;;;;2.80;2.70;;;28.10;52.90;;;;;;5064815;28;20942;-53
2022/08/11 14:37:03;;;;;;;2.70;2.60;;;28.20;52.80;;;;;;5073660;28;20947;-52
2022/08/11 14:39:34;;;;;;;2.43;2.33;;;28.20;52.40;;;;;;5073141;28;20885;-47
2022/08/11 14:47:39;;;;;;;3.77;3.50;;;28.10;52.50;;;;;;5053217;28;20412;-50
2022/08/11 14:50:12;;;;;;;3.50;3.37;;;28.10;52.40;;;;;;5052860;28;20484;-48
2022/08/11 14:52:44;;;;;;;3.10;2.90;;;28.10;52.30;;;;;;5053154;28;20460;-46
2022/08/11 14:57:59;;;;;;;2.70;2.60;;;28.20;52.50;;;;;;5053074;28;20504;-50
2022/08/11 15:00:27;;;;;;;2.83;2.73;;;28.20;52.50;;;;;;5052751;28;20448;-49
2022/08/11 15:03:09;;;;;;;2.63;2.53;;;28.20;52.30;;;;;;5052942;28;20874;-47
2022/08/11 15:05:40;;;;;;;3.07;2.90;;;28.30;52.30;;;;;;5072630;28;20448;-49
2022/08/11 15:08:09;;;;;;;2.80;2.60;;;28.30;52.10;;;;;;5072790;28;20450;-50
2022/08/11 15:10:36;;;;;;;3.17;2.97;;;28.30;52.10;;;;;;5072213;28;20486;-53
2022/08/11 15:13:05;;;;;;;2.90;2.80;;;28.30;52.00;;;;;;5071822;28;21027;-50
2022/08/11 15:18:19;;;;;;;3.17;2.97;;;28.30;52.00;;;;;;5072463;28;20423;-54
2022/08/11 15:26:19;;;;;;;3.10;2.90;;;28.40;51.90;;;;;;5052484;28;20545;-49
2022/08/11 15:37:26;;;;;;;2.67;2.57;;;28.40;51.60;;;;;;5072355;28;20419;-48
2022/08/11 15:45:48;;;;;;;3.07;2.90;;;28.40;51.60;;;;;;5052243;28;20946;-46
2022/08/11 15:48:21;;;;;;;2.70;2.60;;;28.40;51.70;;;;;;5052118;28;20451;-48
2022/08/11 15:50:54;;;;;;;3.00;2.90;;;28.40;51.80;;;;;;5051844;28;20519;-47
2022/08/11 15:53:30;;;;;;;3.60;3.40;;;28.50;51.80;;;;;;5066253;28;20542;-51
2022/08/11 15:55:59;;;;;;;3.10;3.00;;;28.50;51.70;;;;;;5071909;28;20443;-52
2022/08/11 16:04:13;;;;;;;2.83;2.63;;;28.50;51.60;;;;;;5051915;28;20440;-46
2022/08/11 16:06:49;;;;;;;3.23;3.03;;;28.50;51.70;;;;;;5051842;28;20440;-47
2022/08/11 16:09:26;;;;;;;3.07;2.87;;;28.50;51.70;;;;;;5052352;28;20472;-54
2022/08/11 16:11:54;;;;;;;3.00;2.90;;;28.50;51.50;;;;;;5067867;28;20477;-48
2022/08/11 16:17:11;;;;;;;2.63;2.53;;;28.50;51.40;;;;;;5071863;28;20771;-46
2022/08/11 16:19:41;;;;;;;3.33;3.23;;;28.50;51.20;;;;;;5071403;28;20538;-46
2022/08/11 16:22:10;;;;;;;3.13;3.03;;;28.50;51.40;;;;;;5053799;28;20444;-47
2022/08/11 16:24:43;;;;;;;3.57;3.37;;;28.50;51.30;;;;;;5051340;28;21026;-46
2022/08/11 16:27:13;;;;;;;3.10;3.00;;;28.50;51.20;;;;;;5051475;28;20450;-52
2022/08/11 16:29:43;;;;;;;2.97;2.87;;;28.50;51.30;;;;;;5051211;28;20816;-51
2022/08/11 16:32:19;;;;;;;2.90;2.80;;;28.50;51.80;;;;;;5068575;28;20576;-47
2022/08/11 16:40:22;;;;;;;3.20;3.10;;;28.50;51.40;;;;;;5068764;28;20415;-48
2022/08/11 16:48:27;;;;;;;3.27;3.17;;;28.50;51.40;;;;;;5076321;28;20487;-58
2022/08/11 16:50:54;;;;;;;2.47;2.37;;;28.50;51.60;;;;;;5074535;28;20486;-58
2022/08/11 16:53:21;;;;;;;3.00;2.80;;;28.50;51.60;;;;;;5075950;28;20460;-60
2022/08/11 16:55:52;;;;;;;3.10;3.00;;;28.50;51.60;;;;;;5077429;28;20443;-61
2022/08/11 17:01:09;;;;;;;3.33;3.23;;;28.40;51.60;;;;;;5046590;28;20424;-58
2022/08/11 17:15:03;;;;;;;3.23;3.13;;;28.40;51.60;;;;;;5033579;28;20416;-60
2022/08/11 17:17:35;;;;;;;2.70;2.60;;;28.50;51.70;;;;;;5030551;28;20433;-63
2022/08/11 17:20:08;;;;;;;3.80;3.60;;;28.50;51.70;;;;;;5036761;28;20528;-59
2022/08/11 17:25:24;;;;;;;3.27;3.10;;;28.60;51.80;;;;;;5051665;28;20457;-63
2022/08/11 17:27:54;;;;;;;2.80;2.70;;;28.50;51.60;;;;;;5052451;28;20969;-62
2022/08/11 17:30:21;;;;;;;3.40;3.20;;;28.50;51.70;;;;;;5066528;28;20479;-61
2022/08/11 17:35:40;;;;;;;3.50;3.30;;;28.60;51.80;;;;;;5072281;28;20430;-60
2022/08/11 17:38:09;;;;;;;2.87;2.77;;;28.50;51.80;;;;;;5075031;28;20470;-59
2022/08/11 17:40:38;;;;;;;3.53;3.43;;;28.50;52.00;;;;;;5057835;28;21014;-62
2022/08/11 17:48:44;;;;;;;3.03;2.83;;;28.60;52.00;;;;;;5069090;28;20458;-63
2022/08/11 17:59:50;;;;;;;3.00;2.90;;;28.50;51.80;;;;;;5075626;28;20918;-59
2022/08/11 17:59:52;;;;;;;3.47;3.00;;;28.60;47.80;;;;;;5057395;28;20462;-60
2022/08/11 18:05:06;;;;;;;3.60;3.40;;;28.60;47.90;;;;;;5056248;28;20997;-59
